Time;durP1;ratioP1;P1;durP2;ratioP2;P2;SDS_P1;SDS_P2;PMS_P1;PMS_P2;Temp;Humidity;BMP_temperature;BMP_pressure;BME280_temperature;BME280_humidity;BME280_pressure;Samples;Min_cycle;Max_cycle;Signal;HPM_P1;HPM_P2
2023/07/09 00:00:41;;;;;;;0.10;0.10;;;;;;;;;;5128775;27;20526;-48
2023/07/09 00:03:09;;;;;;;0.20;0.20;;;;;;;;;;5129447;28;20066;-50
2023/07/09 00:05:34;;;;;;;0.10;0.10;;;;;;;;;;5128343;27;20043;-49
2023/07/09 00:08:00;;;;;;;0.10;0.10;;;;;;;;;;5149755;27;20696;-49
2023/07/09 00:10:25;;;;;;;0.10;0.10;;;;;;;;;;5141998;27;20133;-50
2023/07/09 00:12:51;;;;;;;0.10;0.10;;;;;;;;;;5128651;28;20047;-49
2023/07/09 00:15:18;;;;;;;0.10;0.10;;;;;;;;;;5129115;28;20047;-49
2023/07/09 00:17:43;;;;;;;0.10;0.10;;;;;;;;;;5129233;28;20072;-50
2023/07/09 00:20:12;;;;;;;0.10;0.10;;;;;;;;;;5128505;27;20051;-49
2023/07/09 00:22:37;;;;;;;0.10;0.10;;;;;;;;;;5129265;28;20053;-49
2023/07/09 00:25:04;;;;;;;0.10;0.10;;;;;;;;;;5128999;28;20043;-49
2023/07/09 00:27:31;;;;;;;0.10;0.10;;;;;;;;;;5129243;28;20281;-49
2023/07/09 00:29:56;;;;;;;0.10;0.10;;;;;;;;;;5129240;28;20069;-50
2023/07/09 00:32:22;;;;;;;0.10;0.10;;;;;;;;;;5128589;28;20381;-50
2023/07/09 00:34:48;;;;;;;0.10;0.10;;;;;;;;;;5129591;28;20078;-49
2023/07/09 00:37:16;;;;;;;0.10;0.10;;;;;;;;;;5129230;28;20077;-49
2023/07/09 00:39:42;;;;;;;0.10;0.10;;;;;;;;;;5128354;28;20100;-50
2023/07/09 00:42:11;;;;;;;0.10;0.10;;;;;;;;;;5129322;28;20476;-50
2023/07/09 00:44:37;;;;;;;0.10;0.10;;;;;;;;;;5129522;28;20074;-50
2023/07/09 00:47:08;;;;;;;0.10;0.10;;;;;;;;;;5129175;28;20089;-50
2023/07/09 00:49:36;;;;;;;0.10;0.10;;;;;;;;;;5129166;27;20039;-48
2023/07/09 00:52:09;;;;;;;0.10;0.10;;;;;;;;;;5128914;28;20681;-49
2023/07/09 00:54:38;;;;;;;0.10;0.10;;;;;;;;;;5129621;27;20039;-50
2023/07/09 00:57:06;;;;;;;0.10;0.10;;;;;;;;;;5128202;28;20078;-49
2023/07/09 00:59:32;;;;;;;0.10;0.10;;;;;;;;;;5128878;27;20410;-50
2023/07/09 01:01:59;;;;;;;0.10;0.10;;;;;;;;;;5128753;27;20487;-50
2023/07/09 01:04:26;;;;;;;0.10;0.10;;;;;;;;;;5128951;27;20107;-50
2023/07/09 01:06:54;;;;;;;0.10;0.10;;;;;;;;;;5107954;27;20133;-49
2023/07/09 01:09:21;;;;;;;0.13;0.13;;;;;;;;;;5107652;28;20044;-50
2023/07/09 01:11:47;;;;;;;0.10;0.10;;;;;;;;;;5126333;28;20069;-49
2023/07/09 01:14:17;;;;;;;0.10;0.10;;;;;;;;;;5128687;27;20388;-49
2023/07/09 01:16:45;;;;;;;0.10;0.10;;;;;;;;;;5128376;28;20321;-49
2023/07/09 01:19:13;;;;;;;0.10;0.10;;;;;;;;;;5128441;28;20078;-50
2023/07/09 01:21:39;;;;;;;0.10;0.10;;;;;;;;;;5127552;28;20479;-50
2023/07/09 01:24:14;;;;;;;0.10;0.10;;;;;;;;;;5128570;27;20055;-50
2023/07/09 01:26:39;;;;;;;0.10;0.10;;;;;;;;;;5126504;28;20086;-49
2023/07/09 01:29:05;;;;;;;0.10;0.10;;;;;;;;;;5128100;28;20052;-50
2023/07/09 01:31:30;;;;;;;0.10;0.10;;;;;;;;;;5127565;28;20070;-49
2023/07/09 01:33:56;;;;;;;0.10;0.10;;;;;;;;;;5127610;28;20055;-50
2023/07/09 01:36:23;;;;;;;0.30;0.30;;;;;;;;;;5128188;28;20047;-50
2023/07/09 01:38:49;;;;;;;0.20;0.20;;;;;;;;;;5128113;28;20052;-50
2023/07/09 01:41:16;;;;;;;0.10;0.10;;;;;;;;;;5126925;28;20505;-48
2023/07/09 01:43:42;;;;;;;0.10;0.10;;;;;;;;;;5128387;27;20120;-50
2023/07/09 01:46:08;;;;;;;0.10;0.10;;;;;;;;;;5127779;27;20046;-50
2023/07/09 01:48:41;;;;;;;0.10;0.10;;;;;;;;;;5128393;27;20043;-50
2023/07/09 01:51:08;;;;;;;0.10;0.10;;;;;;;;;;5128016;27;20039;-50
2023/07/09 01:53:35;;;;;;;0.10;0.10;;;;;;;;;;5127979;28;20082;-50
2023/07/09 01:56:02;;;;;;;0.10;0.10;;;;;;;;;;5128161;28;20071;-50
2023/07/09 01:58:30;;;;;;;0.10;0.10;;;;;;;;;;5127401;28;20069;-48
2023/07/09 02:00:56;;;;;;;0.10;0.10;;;;;;;;;;5127611;28;20069;-50
2023/07/09 02:03:24;;;;;;;0.10;0.10;;;;;;;;;;5127873;28;20521;-48
2023/07/09 02:05:52;;;;;;;0.10;0.10;;;;;;;;;;5127409;27;20074;-50
2023/07/09 02:08:18;;;;;;;0.10;0.10;;;;;;;;;;5127874;28;20047;-50
2023/07/09 02:10:44;;;;;;;0.10;0.10;;;;;;;;;;5127336;27;20448;-49
2023/07/09 02:13:09;;;;;;;0.10;0.10;;;;;;;;;;5127849;28;20050;-51
2023/07/09 02:15:36;;;;;;;0.20;0.20;;;;;;;;;;5127552;27;20067;-49
2023/07/09 02:18:02;;;;;;;0.10;0.10;;;;;;;;;;5127610;27;20050;-49
2023/07/09 02:20:28;;;;;;;0.10;0.10;;;;;;;;;;5127669;28;20092;-41
2023/07/09 02:22:53;;;;;;;0.10;0.10;;;;;;;;;;5127694;28;20403;-39
2023/07/09 02:25:19;;;;;;;0.10;0.10;;;;;;;;;;5127726;28;20070;-40
2023/07/09 02:27:44;;;;;;;0.10;0.10;;;;;;;;;;5127150;28;20039;-42
2023/07/09 02:30:11;;;;;;;0.10;0.10;;;;;;;;;;5126985;28;20088;-42
2023/07/09 02:32:36;;;;;;;0.10;0.10;;;;;;;;;;5127553;28;20045;-58
2023/07/09 02:35:02;;;;;;;0.10;0.10;;;;;;;;;;5127027;28;20048;-58
2023/07/09 02:37:28;;;;;;;0.10;0.10;;;;;;;;;;5126329;28;20629;-58
2023/07/09 02:39:53;;;;;;;0.10;0.10;;;;;;;;;;5126500;28;20301;-58
2023/07/09 02:42:20;;;;;;;0.10;0.10;;;;;;;;;;5126274;28;20043;-59
2023/07/09 02:44:46;;;;;;;0.10;0.10;;;;;;;;;;5126752;27;20043;-58
2023/07/09 02:47:12;;;;;;;0.20;0.20;;;;;;;;;;5125159;27;20054;-57
2023/07/09 02:49:37;;;;;;;0.10;0.10;;;;;;;;;;5126533;27;20518;-58
2023/07/09 02:52:03;;;;;;;0.10;0.10;;;;;;;;;;5126710;28;20051;-59
2023/07/09 02:54:29;;;;;;;0.10;0.10;;;;;;;;;;5126640;28;20139;-58
2023/07/09 02:56:54;;;;;;;0.10;0.10;;;;;;;;;;5126777;28;20055;-58
2023/07/09 02:59:20;;;;;;;0.10;0.10;;;;;;;;;;5126081;27;20046;-58
2023/07/09 03:01:47;;;;;;;0.10;0.10;;;;;;;;;;5125786;27;20458;-58
2023/07/09 03:04:13;;;;;;;0.10;0.10;;;;;;;;;;5120664;27;20680;-58
2023/07/09 03:06:40;;;;;;;0.10;0.10;;;;;;;;;;5124192;27;20066;-58
2023/07/09 03:09:06;;;;;;;0.10;0.10;;;;;;;;;;5126273;28;20051;-58
2023/07/09 03:11:33;;;;;;;0.10;0.10;;;;;;;;;;5126130;28;20054;-58
2023/07/09 03:13:59;;;;;;;0.10;0.10;;;;;;;;;;5126764;28;20096;-58
2023/07/09 03:16:26;;;;;;;0.10;0.10;;;;;;;;;;5126876;28;20130;-58
2023/07/09 03:18:51;;;;;;;0.10;0.10;;;;;;;;;;5126536;28;20192;-58
2023/07/09 03:21:17;;;;;;;0.10;0.10;;;;;;;;;;5126418;28;20441;-58
2023/07/09 03:23:42;;;;;;;0.10;0.10;;;;;;;;;;5126966;27;20043;-58
2023/07/09 03:26:08;;;;;;;0.17;0.17;;;;;;;;;;5126296;27;20055;-58
2023/07/09 03:28:33;;;;;;;0.10;0.10;;;;;;;;;;5129187;28;20054;-58
2023/07/09 03:30:59;;;;;;;0.10;0.10;;;;;;;;;;5129760;28;20051;-58
2023/07/09 03:33:25;;;;;;;0.20;0.20;;;;;;;;;;5130232;28;20049;-58
2023/07/09 03:35:51;;;;;;;0.10;0.10;;;;;;;;;;5130519;28;20047;-58
2023/07/09 03:38:16;;;;;;;0.10;0.10;;;;;;;;;;5129194;28;20111;-58
2023/07/09 03:40:42;;;;;;;0.10;0.10;;;;;;;;;;5129460;28;20051;-58
2023/07/09 03:43:08;;;;;;;0.10;0.10;;;;;;;;;;5129722;28;20054;-58
2023/07/09 03:45:34;;;;;;;0.10;0.10;;;;;;;;;;5129295;28;20039;-59
2023/07/09 03:48:00;;;;;;;0.10;0.10;;;;;;;;;;5130075;27;20062;-58
2023/07/09 03:50:26;;;;;;;0.10;0.10;;;;;;;;;;5129746;28;20078;-58
2023/07/09 03:52:52;;;;;;;0.10;0.10;;;;;;;;;;5129782;28;20181;-58
2023/07/09 03:55:17;;;;;;;0.10;0.10;;;;;;;;;;5130241;28;20043;-59
2023/07/09 03:57:43;;;;;;;0.10;0.10;;;;;;;;;;5129942;28;20189;-58
2023/07/09 04:00:10;;;;;;;0.10;0.10;;;;;;;;;;5129094;28;20431;-58
2023/07/09 04:02:36;;;;;;;0.10;0.10;;;;;;;;;;5128276;28;20092;-58
2023/07/09 04:05:01;;;;;;;0.32;0.20;;;;;;;;;;5135441;27;20118;-58
2023/07/09 04:07:27;;;;;;;0.10;0.10;;;;;;;;;;5150238;27;20051;-58
2023/07/09 04:09:52;;;;;;;0.10;0.10;;;;;;;;;;5142333;27;20155;-58
2023/07/09 04:12:18;;;;;;;0.10;0.10;;;;;;;;;;5129696;28;20047;-59
2023/07/09 04:14:43;;;;;;;0.10;0.10;;;;;;;;;;5129588;28;20058;-58
2023/07/09 04:17:09;;;;;;;0.10;0.10;;;;;;;;;;5129694;28;20429;-58
2023/07/09 04:19:34;;;;;;;0.10;0.10;;;;;;;;;;5129588;27;20051;-57
2023/07/09 04:22:00;;;;;;;0.10;0.10;;;;;;;;;;5129200;28;20047;-58
2023/07/09 04:24:27;;;;;;;0.10;0.10;;;;;;;;;;5129934;28;20047;-58
2023/07/09 04:26:56;;;;;;;0.10;0.10;;;;;;;;;;5129096;28;20083;-58
2023/07/09 04:29:22;;;;;;;0.10;0.10;;;;;;;;;;5129617;28;20078;-58
2023/07/09 04:31:47;;;;;;;0.10;0.10;;;;;;;;;;5128495;28;20055;-58
2023/07/09 04:34:13;;;;;;;0.20;0.20;;;;;;;;;;5129351;28;20047;-58
2023/07/09 04:36:39;;;;;;;0.13;0.13;;;;;;;;;;5129719;28;20050;-58
2023/07/09 04:39:04;;;;;;;0.10;0.10;;;;;;;;;;5128462;27;20055;-58
2023/07/09 04:41:30;;;;;;;0.10;0.10;;;;;;;;;;5128630;28;20039;-58
2023/07/09 04:43:56;;;;;;;0.10;0.10;;;;;;;;;;5129757;27;20051;-59
2023/07/09 04:46:21;;;;;;;0.10;0.10;;;;;;;;;;5128064;28;20050;-58
2023/07/09 04:48:47;;;;;;;0.10;0.10;;;;;;;;;;5129066;28;20051;-58
2023/07/09 04:51:13;;;;;;;0.10;0.10;;;;;;;;;;5128898;28;20167;-59
2023/07/09 04:53:38;;;;;;;0.20;0.20;;;;;;;;;;5128952;28;20141;-58
2023/07/09 04:56:04;;;;;;;0.10;0.10;;;;;;;;;;5128913;28;20472;-59
2023/07/09 04:58:30;;;;;;;0.10;0.10;;;;;;;;;;5128964;28;20392;-58
2023/07/09 05:00:56;;;;;;;0.10;0.10;;;;;;;;;;5128473;28;20047;-58
2023/07/09 05:03:22;;;;;;;0.10;0.10;;;;;;;;;;5127520;27;20480;-58
2023/07/09 05:05:48;;;;;;;0.10;0.10;;;;;;;;;;5139982;27;20506;-59
2023/07/09 05:08:14;;;;;;;0.20;0.20;;;;;;;;;;5149563;27;20055;-58
2023/07/09 05:10:41;;;;;;;0.10;0.10;;;;;;;;;;5139733;27;20051;-58
2023/07/09 05:13:07;;;;;;;0.10;0.10;;;;;;;;;;5128749;28;20108;-59
2023/07/09 05:15:32;;;;;;;0.10;0.10;;;;;;;;;;5128601;28;20111;-58
2023/07/09 05:17:58;;;;;;;0.10;0.10;;;;;;;;;;5128843;28;20134;-58
2023/07/09 05:20:24;;;;;;;0.10;0.10;;;;;;;;;;5127993;28;20055;-58
2023/07/09 05:22:50;;;;;;;0.10;0.10;;;;;;;;;;5128981;28;20474;-58
2023/07/09 05:25:15;;;;;;;0.10;0.10;;;;;;;;;;5129116;28;20043;-58
2023/07/09 05:27:41;;;;;;;0.10;0.10;;;;;;;;;;5129020;28;20073;-58
2023/07/09 05:30:07;;;;;;;0.10;0.10;;;;;;;;;;5127952;28;20055;-58
2023/07/09 05:32:33;;;;;;;0.10;0.10;;;;;;;;;;5128329;28;20057;-58
2023/07/09 05:34:59;;;;;;;0.10;0.10;;;;;;;;;;5129087;28;20053;-61
2023/07/09 05:37:24;;;;;;;0.10;0.10;;;;;;;;;;5129070;28;20047;-61
2023/07/09 05:39:50;;;;;;;0.10;0.10;;;;;;;;;;5128080;28;20422;-61
2023/07/09 05:42:15;;;;;;;0.10;0.10;;;;;;;;;;5128080;28;20448;-61
2023/07/09 05:44:41;;;;;;;0.10;0.10;;;;;;;;;;5129148;28;20062;-60
2023/07/09 05:47:06;;;;;;;0.10;0.10;;;;;;;;;;5128402;28;20062;-61
2023/07/09 05:49:32;;;;;;;0.10;0.10;;;;;;;;;;5127294;27;20101;-60
2023/07/09 05:51:57;;;;;;;0.10;0.10;;;;;;;;;;5127627;28;20047;-61
2023/07/09 05:54:23;;;;;;;0.10;0.10;;;;;;;;;;5128450;28;20051;-61
2023/07/09 05:56:49;;;;;;;0.10;0.10;;;;;;;;;;5128399;28;20074;-61
2023/07/09 05:59:14;;;;;;;0.10;0.10;;;;;;;;;;5128089;28;20479;-61
2023/07/09 06:01:39;;;;;;;0.10;0.10;;;;;;;;;;5127120;28;20051;-61
2023/07/09 06:04:06;;;;;;;0.10;0.10;;;;;;;;;;5136978;27;20058;-60
2023/07/09 06:06:32;;;;;;;0.10;0.10;;;;;;;;;;5127380;28;20132;-60
2023/07/09 06:08:57;;;;;;;0.10;0.10;;;;;;;;;;5127647;28;20166;-61
2023/07/09 06:11:23;;;;;;;0.10;0.10;;;;;;;;;;5126992;28;20047;-61
2023/07/09 06:13:49;;;;;;;0.10;0.10;;;;;;;;;;5127913;28;20046;-61
2023/07/09 06:16:14;;;;;;;0.10;0.10;;;;;;;;;;5127636;28;20403;-61
2023/07/09 06:18:40;;;;;;;0.10;0.10;;;;;;;;;;5127904;28;20206;-61
2023/07/09 06:21:07;;;;;;;0.10;0.10;;;;;;;;;;5127572;28;20051;-59
2023/07/09 06:23:33;;;;;;;0.10;0.10;;;;;;;;;;5128235;28;20505;-61
2023/07/09 06:25:58;;;;;;;0.20;0.20;;;;;;;;;;5127746;28;20056;-61
2023/07/09 06:28:25;;;;;;;0.10;0.10;;;;;;;;;;5128354;28;20067;-61
2023/07/09 06:30:51;;;;;;;0.10;0.10;;;;;;;;;;5126940;27;20396;-61
2023/07/09 06:33:18;;;;;;;0.10;0.10;;;;;;;;;;5128010;28;20096;-61
2023/07/09 06:35:47;;;;;;;0.20;0.20;;;;;;;;;;5127717;27;20316;-61
2023/07/09 06:38:13;;;;;;;0.10;0.10;;;;;;;;;;5127873;27;20111;-61
2023/07/09 06:40:39;;;;;;;0.10;0.10;;;;;;;;;;5127633;27;20047;-61
2023/07/09 06:43:04;;;;;;;0.10;0.10;;;;;;;;;;5127565;28;20302;-61
2023/07/09 06:45:30;;;;;;;0.10;0.10;;;;;;;;;;5128003;28;20096;-61
2023/07/09 06:47:55;;;;;;;0.10;0.10;;;;;;;;;;5128166;28;20478;-61
2023/07/09 06:50:21;;;;;;;0.10;0.10;;;;;;;;;;5126831;28;20047;-60
2023/07/09 06:52:46;;;;;;;0.10;0.10;;;;;;;;;;5128284;28;20051;-60
2023/07/09 06:55:12;;;;;;;0.10;0.10;;;;;;;;;;5127841;28;20051;-61
2023/07/09 06:57:37;;;;;;;0.10;0.10;;;;;;;;;;5128069;28;20070;-61
2023/07/09 07:00:03;;;;;;;0.13;0.13;;;;;;;;;;5126804;28;20149;-61
2023/07/09 07:02:29;;;;;;;0.10;0.10;;;;;;;;;;5121996;27;20468;-61
2023/07/09 07:04:55;;;;;;;0.10;0.10;;;;;;;;;;5111309;28;20416;-61
2023/07/09 07:07:21;;;;;;;0.10;0.10;;;;;;;;;;5122373;28;20058;-61
2023/07/09 07:09:46;;;;;;;0.10;0.10;;;;;;;;;;5130268;28;20043;-61
2023/07/09 07:12:19;;;;;;;0.10;0.10;;;;;;;;;;5131465;28;20294;-61
2023/07/09 07:14:45;;;;;;;0.10;0.10;;;;;;;;;;5131456;27;20092;-61
2023/07/09 07:17:10;;;;;;;0.25;0.25;;;;;;;;;;5131350;28;20074;-61
2023/07/09 07:19:36;;;;;;;0.10;0.10;;;;;;;;;;5131122;28;20209;-61
2023/07/09 07:22:01;;;;;;;0.10;0.10;;;;;;;;;;5130872;28;20539;-61
2023/07/09 07:24:27;;;;;;;0.10;0.10;;;;;;;;;;5131338;28;20074;-61
2023/07/09 07:26:52;;;;;;;0.10;0.10;;;;;;;;;;5131405;28;20051;-61
2023/07/09 07:29:18;;;;;;;0.10;0.10;;;;;;;;;;5131175;28;20575;-61
2023/07/09 07:31:43;;;;;;;0.10;0.10;;;;;;;;;;5130507;28;20079;-61
2023/07/09 07:34:10;;;;;;;0.10;0.10;;;;;;;;;;5130787;28;20053;-61
2023/07/09 07:36:35;;;;;;;0.10;0.10;;;;;;;;;;5130482;27;20043;-61
2023/07/09 07:39:07;;;;;;;0.10;0.10;;;;;;;;;;5131179;27;20043;-61
2023/07/09 07:41:33;;;;;;;0.10;0.10;;;;;;;;;;5130376;28;20046;-61
2023/07/09 07:43:58;;;;;;;0.10;0.10;;;;;;;;;;5130807;28;20456;-61
2023/07/09 07:46:24;;;;;;;0.10;0.10;;;;;;;;;;5130508;28;20150;-62
2023/07/09 07:48:49;;;;;;;0.10;0.10;;;;;;;;;;5130597;28;20070;-61
2023/07/09 07:51:15;;;;;;;0.10;0.10;;;;;;;;;;5130406;28;20039;-61
2023/07/09 07:53:40;;;;;;;0.10;0.10;;;;;;;;;;5130916;28;20074;-61
2023/07/09 07:56:06;;;;;;;0.10;0.10;;;;;;;;;;5131072;27;20055;-61
2023/07/09 07:58:32;;;;;;;0.10;0.10;;;;;;;;;;5131123;28;20050;-61
2023/07/09 08:00:57;;;;;;;0.10;0.10;;;;;;;;;;5130287;27;20408;-61
2023/07/09 08:03:23;;;;;;;0.10;0.10;;;;;;;;;;5114300;27;20567;-60
2023/07/09 08:05:49;;;;;;;0.10;0.10;;;;;;;;;;5110706;28;20082;-60
2023/07/09 08:08:15;;;;;;;0.15;0.15;;;;;;;;;;5114403;28;20055;-60
2023/07/09 08:10:41;;;;;;;0.10;0.10;;;;;;;;;;5129391;28;20843;-60
2023/07/09 08:13:06;;;;;;;0.10;0.10;;;;;;;;;;5129722;27;20058;-60
2023/07/09 08:15:32;;;;;;;0.10;0.10;;;;;;;;;;5130737;28;20082;-61
2023/07/09 08:17:57;;;;;;;0.10;0.10;;;;;;;;;;5130980;28;20039;-61
2023/07/09 08:20:23;;;;;;;0.10;0.10;;;;;;;;;;5129809;27;20051;-59
2023/07/09 08:22:49;;;;;;;0.10;0.10;;;;;;;;;;5130644;28;20046;-60
2023/07/09 08:25:14;;;;;;;0.10;0.10;;;;;;;;;;5130846;28;20411;-60
2023/07/09 08:27:40;;;;;;;0.10;0.10;;;;;;;;;;5130350;28;20054;-61
2023/07/09 08:30:06;;;;;;;0.10;0.10;;;;;;;;;;5129710;28;20124;-60
2023/07/09 08:32:31;;;;;;;0.10;0.10;;;;;;;;;;5129833;28;20055;-61
2023/07/09 08:34:57;;;;;;;0.10;0.10;;;;;;;;;;5129401;28;20357;-60
2023/07/09 08:37:42;;;;;;;0.30;0.30;;;;;;;;;;5126727;28;20057;-60
2023/07/09 08:40:11;;;;;;;0.10;0.10;;;;;;;;;;5129210;28;20138;-60
2023/07/09 08:42:41;;;;;;;0.10;0.10;;;;;;;;;;5130010;28;20078;-60
2023/07/09 08:45:45;;;;;;;0.10;0.10;;;;;;;;;;5129694;27;20047;-61
2023/07/09 08:48:23;;;;;;;0.10;0.10;;;;;;;;;;5114504;28;20051;-61
2023/07/09 08:50:52;;;;;;;0.10;0.10;;;;;;;;;;5129339;28;20043;-60
2023/07/09 08:53:20;;;;;;;0.10;0.10;;;;;;;;;;5129302;28;20081;-60
2023/07/09 08:55:48;;;;;;;0.10;0.10;;;;;;;;;;5130048;27;20062;-60
2023/07/09 08:58:30;;;;;;;0.10;0.10;;;;;;;;;;5130006;27;20046;-60
2023/07/09 09:00:57;;;;;;;0.10;0.10;;;;;;;;;;5128620;27;20066;-59
2023/07/09 09:03:43;;;;;;;0.10;0.10;;;;;;;;;;5145747;27;21151;-60
2023/07/09 09:06:10;;;;;;;0.10;0.10;;;;;;;;;;5134900;27;20086;-60
2023/07/09 09:08:39;;;;;;;0.10;0.10;;;;;;;;;;5149882;27;20081;-60
2023/07/09 09:11:10;;;;;;;0.13;0.13;;;;;;;;;;5136707;27;20409;-60
2023/07/09 09:13:36;;;;;;;0.10;0.10;;;;;;;;;;5129942;28;20267;-60
2023/07/09 09:16:04;;;;;;;0.10;0.10;;;;;;;;;;5129962;28;20453;-61
2023/07/09 09:18:30;;;;;;;;;;;;;;;;;;5130347;28;20380;-60
2023/07/09 09:21:14;;;;;;;0.10;0.10;;;;;;;;;;5128966;27;20370;-61
2023/07/09 09:23:42;;;;;;;0.10;0.10;;;;;;;;;;5129765;28;20086;-60
2023/07/09 09:26:08;;;;;;;;;;;;;;;;;;5128856;28;20039;-60
2023/07/09 09:28:39;;;;;;;0.10;0.10;;;;;;;;;;5129621;28;19927;-60
2023/07/09 09:31:06;;;;;;;0.10;0.10;;;;;;;;;;5129102;28;20404;-60
2023/07/09 09:33:48;;;;;;;0.10;0.10;;;;;;;;;;5129342;28;20036;-60
2023/07/09 09:36:15;;;;;;;0.20;0.20;;;;;;;;;;5129296;27;20471;-60
2023/07/09 09:38:42;;;;;;;0.10;0.10;;;;;;;;;;5129410;28;20051;-60
2023/07/09 09:41:16;;;;;;;0.10;0.10;;;;;;;;;;5128458;28;20070;-60
2023/07/09 09:43:42;;;;;;;0.10;0.10;;;;;;;;;;5129297;27;20055;-60
2023/07/09 09:46:09;;;;;;;0.10;0.10;;;;;;;;;;5129377;28;20066;-60
2023/07/09 09:48:36;;;;;;;0.10;0.10;;;;;;;;;;5128722;28;20078;-60
2023/07/09 09:51:04;;;;;;;0.10;0.10;;;;;;;;;;5129012;28;20089;-60
2023/07/09 09:53:37;;;;;;;0.10;0.10;;;;;;;;;;5129658;28;20055;-61
2023/07/09 09:56:04;;;;;;;0.10;0.10;;;;;;;;;;5128763;28;20050;-61
2023/07/09 09:58:30;;;;;;;0.10;0.10;;;;;;;;;;5128946;27;20039;-60
2023/07/09 10:00:57;;;;;;;0.10;0.10;;;;;;;;;;5128114;27;20483;-61
2023/07/09 10:03:32;;;;;;;0.10;0.10;;;;;;;;;;5135142;27;20051;-61
2023/07/09 10:05:59;;;;;;;0.10;0.10;;;;;;;;;;5129112;28;20472;-60
2023/07/09 10:08:48;;;;;;;0.10;0.10;;;;;;;;;;5128938;28;20479;-60
2023/07/09 10:11:34;;;;;;;0.10;0.10;;;;;;;;;;5113137;28;20055;-60
2023/07/09 10:14:06;;;;;;;0.10;0.10;;;;;;;;;;5112728;28;20040;-60
2023/07/09 10:16:35;;;;;;;0.10;0.10;;;;;;;;;;5128440;28;20059;-61
2023/07/09 10:19:14;;;;;;;0.15;0.15;;;;;;;;;;5128738;28;20043;-60
2023/07/09 10:21:44;;;;;;;0.10;0.10;;;;;;;;;;5128068;28;20082;-61
2023/07/09 10:24:30;;;;;;;0.10;0.10;;;;;;;;;;5128638;27;20042;-59
2023/07/09 10:26:59;;;;;;;0.20;0.20;;;;;;;;;;5113180;28;20082;-61
2023/07/09 10:29:34;;;;;;;0.10;0.10;;;;;;;;;;5128413;28;20259;-61
2023/07/09 10:32:04;;;;;;;0.10;0.10;;;;;;;;;;5128070;28;20349;-60
2023/07/09 10:37:19;;;;;;;0.10;0.10;;;;;;;;;;5187535;27;20145;-58
2023/07/09 10:39:47;;;;;;;0.10;0.10;;;;;;;;;;5165940;27;20091;-58
2023/07/09 10:42:20;;;;;;;0.10;0.10;;;;;;;;;;5165941;27;20050;-58
2023/07/09 10:44:50;;;;;;;0.10;0.10;;;;;;;;;;5166636;27;20091;-58
2023/07/09 10:47:26;;;;;;;0.20;0.20;;;;;;;;;;5165878;27;20059;-58
2023/07/09 10:49:52;;;;;;;0.10;0.10;;;;;;;;;;5165460;27;20074;-58
2023/07/09 10:52:23;;;;;;;0.10;0.10;;;;;;;;;;5166419;27;20054;-58
2023/07/09 10:55:08;;;;;;;0.10;0.10;;;;;;;;;;5166362;27;20739;-58
2023/07/09 10:57:53;;;;;;;0.10;0.10;;;;;;;;;;5163515;27;20053;-58
2023/07/09 11:00:20;;;;;;;0.10;0.10;;;;;;;;;;5161702;27;20042;-57
2023/07/09 11:02:47;;;;;;;0.10;0.10;;;;;;;;;;5155734;27;20053;-58
2023/07/09 11:05:13;;;;;;;0.17;0.17;;;;;;;;;;5166700;27;20042;-58
2023/07/09 11:07:42;;;;;;;0.10;0.10;;;;;;;;;;5166188;27;20078;-58
2023/07/09 11:10:17;;;;;;;0.20;0.20;;;;;;;;;;5160666;27;20058;-58
2023/07/09 11:12:45;;;;;;;0.10;0.10;;;;;;;;;;5145031;27;20292;-58
2023/07/09 11:15:13;;;;;;;0.10;0.10;;;;;;;;;;5144796;27;20085;-58
2023/07/09 11:17:42;;;;;;;0.10;0.10;;;;;;;;;;5145470;27;20078;-58
2023/07/09 11:20:28;;;;;;;0.10;0.10;;;;;;;;;;5144737;27;20043;-57
2023/07/09 11:22:59;;;;;;;0.10;0.10;;;;;;;;;;5129540;27;20082;-58
2023/07/09 11:25:42;;;;;;;0.10;0.10;;;;;;;;;;5145348;27;20100;-58
2023/07/09 11:28:09;;;;;;;0.10;0.10;;;;;;;;;;5145404;27;20078;-58
2023/07/09 11:30:45;;;;;;;0.10;0.10;;;;;;;;;;5144439;27;20043;-58
2023/07/09 11:33:19;;;;;;;0.10;0.10;;;;;;;;;;5145150;27;20089;-58
2023/07/09 11:35:51;;;;;;;0.10;0.10;;;;;;;;;;5144659;27;20051;-58
2023/07/09 11:38:19;;;;;;;0.20;0.20;;;;;;;;;;5144955;27;20082;-58
2023/07/09 11:40:46;;;;;;;0.10;0.10;;;;;;;;;;5143584;27;20047;-58
2023/07/09 11:43:25;;;;;;;0.10;0.10;;;;;;;;;;5144037;27;20050;-58
2023/07/09 11:45:51;;;;;;;0.10;0.10;;;;;;;;;;5144877;27;20082;-57
2023/07/09 11:48:24;;;;;;;0.10;0.10;;;;;;;;;;5131940;27;20515;-58
2023/07/09 11:50:50;;;;;;;0.10;0.10;;;;;;;;;;5130268;27;20062;-58
2023/07/09 11:53:36;;;;;;;0.10;0.10;;;;;;;;;;5130498;28;20057;-58
2023/07/09 11:56:02;;;;;;;0.10;0.10;;;;;;;;;;5129290;28;20456;-57
2023/07/09 11:58:28;;;;;;;0.10;0.10;;;;;;;;;;5130431;27;20471;-58
2023/07/09 12:00:56;;;;;;;0.15;0.15;;;;;;;;;;5128757;27;20047;-58
2023/07/09 12:03:26;;;;;;;0.10;0.10;;;;;;;;;;5145924;27;20050;-58
2023/07/09 12:05:54;;;;;;;0.10;0.10;;;;;;;;;;5151296;27;20053;-58
2023/07/09 12:08:25;;;;;;;0.17;0.17;;;;;;;;;;5151317;27;20681;-58
2023/07/09 12:10:50;;;;;;;0.10;0.10;;;;;;;;;;5139749;27;20075;-58
2023/07/09 12:13:16;;;;;;;0.10;0.10;;;;;;;;;;5130164;27;20105;-58
2023/07/09 12:15:41;;;;;;;0.10;0.10;;;;;;;;;;5130229;28;20053;-58
2023/07/09 12:18:10;;;;;;;0.10;0.10;;;;;;;;;;5130564;28;20065;-58
2023/07/09 12:20:36;;;;;;;0.10;0.10;;;;;;;;;;5129752;28;20042;-58
2023/07/09 12:23:10;;;;;;;0.10;0.10;;;;;;;;;;5130319;28;20047;-57
2023/07/09 12:25:36;;;;;;;0.10;0.10;;;;;;;;;;5130466;28;20051;-58
2023/07/09 12:28:01;;;;;;;0.10;0.10;;;;;;;;;;5129549;28;20196;-58
2023/07/09 12:30:31;;;;;;;0.10;0.10;;;;;;;;;;5129713;28;20043;-58
2023/07/09 12:32:57;;;;;;;0.10;0.10;;;;;;;;;;5130271;28;20051;-58
2023/07/09 12:35:22;;;;;;;0.10;0.10;;;;;;;;;;5130141;28;20043;-57
2023/07/09 12:37:50;;;;;;;0.10;0.10;;;;;;;;;;5129497;28;20086;-58
2023/07/09 12:40:19;;;;;;;0.17;0.17;;;;;;;;;;5129469;28;20204;-58
2023/07/09 12:42:45;;;;;;;0.10;0.10;;;;;;;;;;5129362;28;20046;-58
2023/07/09 12:45:15;;;;;;;0.10;0.10;;;;;;;;;;5129777;28;20051;-58
2023/07/09 12:47:40;;;;;;;0.10;0.10;;;;;;;;;;5130723;28;20055;-58
2023/07/09 12:50:17;;;;;;;0.10;0.10;;;;;;;;;;5129734;28;20054;-58
2023/07/09 12:52:47;;;;;;;0.10;0.10;;;;;;;;;;5129913;28;20055;-58
2023/07/09 12:55:20;;;;;;;0.10;0.10;;;;;;;;;;5129998;27;20070;-58
2023/07/09 12:57:46;;;;;;;0.20;0.20;;;;;;;;;;5130469;28;20076;-57
2023/07/09 13:00:14;;;;;;;0.10;0.10;;;;;;;;;;5111910;27;20081;-58
2023/07/09 13:02:40;;;;;;;0.10;0.10;;;;;;;;;;5138200;27;20142;-58
2023/07/09 13:05:16;;;;;;;0.10;0.10;;;;;;;;;;5150886;27;20583;-58
2023/07/09 13:07:46;;;;;;;0.10;0.10;;;;;;;;;;5150983;27;20051;-57
2023/07/09 13:10:15;;;;;;;0.10;0.10;;;;;;;;;;5144503;27;20487;-58
2023/07/09 13:12:41;;;;;;;0.10;0.10;;;;;;;;;;5130017;28;20050;-61
2023/07/09 13:15:27;;;;;;;0.10;0.10;;;;;;;;;;5129610;28;20108;-60
2023/07/09 13:18:01;;;;;;;0.10;0.10;;;;;;;;;;5114581;28;20096;-61
2023/07/09 13:20:27;;;;;;;0.10;0.10;;;;;;;;;;5129381;28;20047;-60
2023/07/09 13:22:53;;;;;;;0.10;0.10;;;;;;;;;;5129536;28;20057;-60
2023/07/09 13:25:18;;;;;;;0.10;0.10;;;;;;;;;;5130094;28;20487;-60
2023/07/09 13:27:58;;;;;;;0.10;0.10;;;;;;;;;;5129736;28;20048;-60
2023/07/09 13:30:24;;;;;;;0.10;0.10;;;;;;;;;;5128466;28;20054;-60
2023/07/09 13:32:49;;;;;;;0.10;0.10;;;;;;;;;;5128822;27;20125;-59
2023/07/09 13:35:17;;;;;;;0.10;0.10;;;;;;;;;;5129153;28;20043;-60
2023/07/09 13:37:43;;;;;;;0.10;0.10;;;;;;;;;;5129136;28;20051;-60
2023/07/09 13:40:11;;;;;;;0.10;0.10;;;;;;;;;;5128110;28;20142;-60
2023/07/09 13:42:36;;;;;;;0.15;0.15;;;;;;;;;;5128413;28;20092;-60
2023/07/09 13:45:02;;;;;;;0.20;0.20;;;;;;;;;;5128532;28;20047;-60
2023/07/09 13:47:27;;;;;;;0.10;0.10;;;;;;;;;;5128717;28;20050;-60
2023/07/09 13:49:53;;;;;;;0.10;0.10;;;;;;;;;;5128609;28;20337;-60
2023/07/09 13:52:20;;;;;;;0.10;0.10;;;;;;;;;;5128879;28;20043;-60
2023/07/09 13:54:47;;;;;;;0.10;0.10;;;;;;;;;;5128805;28;20579;-60
2023/07/09 13:57:14;;;;;;;0.10;0.10;;;;;;;;;;5128978;27;20047;-60
2023/07/09 13:59:40;;;;;;;0.10;0.10;;;;;;;;;;5128307;27;20043;-62
2023/07/09 14:04:56;;;;;;;0.10;0.10;;;;;;;;;;5167220;27;20142;-58
2023/07/09 14:07:24;;;;;;;0.10;0.10;;;;;;;;;;5166853;27;20050;-58
2023/07/09 14:09:50;;;;;;;0.10;0.10;;;;;;;;;;5165824;27;20058;-58
2023/07/09 14:12:15;;;;;;;0.10;0.10;;;;;;;;;;5166520;27;20047;-58
2023/07/09 14:14:44;;;;;;;0.10;0.10;;;;;;;;;;5166309;27;20137;-58
2023/07/09 14:17:11;;;;;;;0.10;0.10;;;;;;;;;;5166855;27;20081;-58
2023/07/09 14:19:37;;;;;;;0.10;0.10;;;;;;;;;;5166331;27;20099;-58
2023/07/09 14:22:04;;;;;;;0.10;0.10;;;;;;;;;;5165474;27;20050;-58
2023/07/09 14:24:30;;;;;;;0.20;0.20;;;;;;;;;;5166307;27;20054;-58
2023/07/09 14:26:56;;;;;;;0.10;0.10;;;;;;;;;;5166532;27;20053;-58
2023/07/09 14:29:22;;;;;;;0.10;0.10;;;;;;;;;;5166347;27;20046;-58
2023/07/09 14:31:48;;;;;;;0.10;0.10;;;;;;;;;;5166329;27;20106;-58
2023/07/09 14:34:32;;;;;;;0.15;0.10;;;;;;;;;;5166516;27;20414;-58
2023/07/09 14:36:58;;;;;;;0.10;0.10;;;;;;;;;;5166615;27;20046;-57
2023/07/09 14:39:25;;;;;;;0.10;0.10;;;;;;;;;;5166054;27;20084;-57
2023/07/09 14:41:51;;;;;;;0.10;0.10;;;;;;;;;;5165130;27;20089;-58
2023/07/09 14:44:22;;;;;;;0.10;0.10;;;;;;;;;;5165723;27;20058;-58
2023/07/09 14:46:48;;;;;;;0.20;0.20;;;;;;;;;;5164771;27;20042;-58
2023/07/09 14:49:15;;;;;;;0.10;0.10;;;;;;;;;;5165709;27;20099;-58
2023/07/09 14:51:40;;;;;;;0.10;0.10;;;;;;;;;;5143569;27;20047;-58